createdAt,value
2022-07-29T00:04:05.709Z,23.22
2022-07-29T00:09:09.367Z,23.53
2022-07-29T00:14:14.470Z,23.48
2022-07-29T00:19:18.140Z,23.48
2022-07-29T00:24:21.626Z,23.40
2022-07-29T00:29:34.885Z,23.18
2022-07-29T00:35:07.549Z,23.25
2022-07-29T00:40:11.515Z,22.91
2022-07-29T00:45:17.100Z,23.04
2022-07-29T00:50:20.653Z,23.10
2022-07-29T00:55:24.399Z,22.88
2022-07-29T01:00:30.249Z,23.01
2022-07-29T01:05:50.008Z,23.10
2022-07-29T01:10:55.324Z,22.94
2022-07-29T01:16:06.273Z,22.93
2022-07-29T01:21:29.965Z,22.86
2022-07-29T01:26:39.344Z,22.62
2022-07-29T01:31:56.577Z,22.56
2022-07-29T01:37:08.915Z,22.62
2022-07-29T01:42:28.703Z,22.52
2022-07-29T01:47:41.345Z,22.49
2022-07-29T01:52:49.067Z,22.58
2022-07-29T01:57:53.360Z,22.55
2022-07-29T02:02:58.671Z,22.62
2022-07-29T02:08:03.322Z,22.56
2022-07-29T02:13:07.843Z,22.46
2022-07-29T02:18:17.221Z,22.29
2022-07-29T02:23:22.786Z,22.11
2022-07-29T02:28:32.048Z,22.05
2022-07-29T02:33:37.524Z,21.96
2022-07-29T02:38:52.379Z,21.83
2022-07-29T02:43:57.840Z,21.69
2022-07-29T02:49:06.419Z,21.80
2022-07-29T02:54:11.216Z,21.84
2022-07-29T02:59:16.231Z,21.75
2022-07-29T03:04:21.894Z,21.85
2022-07-29T03:09:34.991Z,21.80
2022-07-29T03:14:38.660Z,21.74
2022-07-29T03:19:44.063Z,21.86
2022-07-29T03:24:47.511Z,21.69
2022-07-29T03:29:50.919Z,21.82
2022-07-29T03:34:55.818Z,21.65
2022-07-29T03:40:00.162Z,21.61
2022-07-29T03:45:07.890Z,21.48
2022-07-29T03:50:14.166Z,21.51
2022-07-29T03:55:18.284Z,21.67
2022-07-29T04:00:22.020Z,21.59
2022-07-29T04:05:27.001Z,21.48
2022-07-29T04:10:32.220Z,21.56
2022-07-29T04:15:38.101Z,21.45
2022-07-29T04:20:43.002Z,21.49
2022-07-29T04:25:46.564Z,21.78
2022-07-29T04:30:50.127Z,21.73
2022-07-29T04:35:55.126Z,21.60
2022-07-29T04:40:59.312Z,21.74
2022-07-29T04:46:02.905Z,21.77
2022-07-29T04:51:07.888Z,21.68
2022-07-29T04:56:12.551Z,21.77
2022-07-29T05:01:16.380Z,21.73
2022-07-29T05:06:21.292Z,21.92
2022-07-29T05:11:28.652Z,22.12
2022-07-29T05:16:34.395Z,22.28
2022-07-29T05:21:40.263Z,22.55
2022-07-29T05:26:44.150Z,22.60
2022-07-29T05:31:47.667Z,22.48
2022-07-29T05:36:52.478Z,22.51
2022-07-29T05:42:16.151Z,22.81
2022-07-29T05:47:19.659Z,22.87
2022-07-29T05:52:24.515Z,23.06
2022-07-29T05:57:28.050Z,23.48
2022-07-29T06:02:31.970Z,23.05
2022-07-29T06:07:36.835Z,23.15
2022-07-29T06:12:42.321Z,23.10
2022-07-29T06:18:00.617Z,23.32
2022-07-29T06:23:06.258Z,23.54
2022-07-29T06:28:09.775Z,23.92
2022-07-29T06:33:19.634Z,24.31
2022-07-29T06:38:30.812Z,24.86
2022-07-29T06:43:50.730Z,25.33
2022-07-29T06:48:58.370Z,25.59
2022-07-29T06:54:03.924Z,25.79
2022-07-29T06:59:08.000Z,25.95
2022-07-29T07:04:12.431Z,26.11
2022-07-29T07:09:17.280Z,26.27
2022-07-29T07:14:21.305Z,26.39
2022-07-29T07:19:25.291Z,26.41
2022-07-29T07:24:30.945Z,26.40
2022-07-29T07:29:34.676Z,26.61
2022-07-29T07:34:38.899Z,26.67
2022-07-29T07:39:44.058Z,26.79
2022-07-29T07:45:12.192Z,26.79
2022-07-29T07:50:18.420Z,26.76
2022-07-29T07:55:24.045Z,26.85
2022-07-29T08:00:27.831Z,26.83
2022-07-29T08:05:31.617Z,26.63
2022-07-29T08:10:56.721Z,26.79
2022-07-29T08:16:01.468Z,26.78
2022-07-29T08:21:05.593Z,26.82
2022-07-29T08:26:11.629Z,26.90
2022-07-29T08:31:15.770Z,26.95
2022-07-29T08:36:21.768Z,26.74
2022-07-29T08:41:26.739Z,26.94
2022-07-29T08:46:43.676Z,27.31
2022-07-29T08:51:53.223Z,27.54
2022-07-29T08:56:58.265Z,27.60
2022-07-29T09:02:03.049Z,27.55
2022-07-29T09:07:07.769Z,27.94
2022-07-29T09:12:13.289Z,28.24
2022-07-29T09:17:51.539Z,28.63
2022-07-29T09:22:55.446Z,28.93
2022-07-29T09:28:07.850Z,28.92
2022-07-29T09:33:11.410Z,29.23
2022-07-29T09:38:15.354Z,29.44
2022-07-29T09:43:20.217Z,29.61
2022-07-29T09:48:25.814Z,29.57
2022-07-29T09:53:33.815Z,29.05
2022-07-29T09:58:38.618Z,29.40
2022-07-29T10:03:52.985Z,30.02
2022-07-29T10:08:56.463Z,30.25
2022-07-29T10:14:04.500Z,29.89
2022-07-29T10:19:08.091Z,29.69
2022-07-29T10:24:15.102Z,30.78
2022-07-29T10:29:20.110Z,31.10
2022-07-29T10:34:33.708Z,31.32
2022-07-29T10:39:49.571Z,31.55
2022-07-29T10:44:55.351Z,31.52
2022-07-29T10:50:01.659Z,31.53
2022-07-29T10:55:05.843Z,31.23
2022-07-29T11:00:30.750Z,30.74
2022-07-29T11:05:53.799Z,30.16
2022-07-29T11:11:43.923Z,30.99
2022-07-29T11:17:06.023Z,30.58
2022-07-29T11:22:11.393Z,30.68
2022-07-29T11:27:18.146Z,29.98
2022-07-29T11:32:29.429Z,30.79
2022-07-29T11:38:33.501Z,30.83
2022-07-29T11:43:50.729Z,30.26
2022-07-29T11:48:54.576Z,29.04
2022-07-29T11:54:04.261Z,30.57
2022-07-29T11:59:10.878Z,30.03
2022-07-29T12:04:19.037Z,30.92
2022-07-29T12:09:25.447Z,31.50
2022-07-29T12:14:33.312Z,31.71
2022-07-29T12:19:44.456Z,31.22
2022-07-29T12:24:48.276Z,31.75
2022-07-29T12:30:00.651Z,32.11
2022-07-29T12:35:06.414Z,32.35
2022-07-29T12:40:11.503Z,31.71
2022-07-29T12:45:17.443Z,33.96
2022-07-29T12:50:25.884Z,34.62
2022-07-29T12:55:49.725Z,34.79
2022-07-29T13:01:06.087Z,35.34
2022-07-29T13:06:35.907Z,35.26
2022-07-29T13:11:46.535Z,35.28
2022-07-29T13:17:07.764Z,35.33
2022-07-29T13:22:11.917Z,35.15
2022-07-29T13:27:16.111Z,35.27
2022-07-29T13:32:28.721Z,34.88
2022-07-29T13:37:34.865Z,35.25
2022-07-29T13:42:38.386Z,36.10
2022-07-29T13:47:49.295Z,36.38
2022-07-29T13:52:53.555Z,36.49
2022-07-29T13:57:57.010Z,37.98
2022-07-29T14:03:01.969Z,37.88
2022-07-29T14:08:05.957Z,38.40
2022-07-29T14:13:24.491Z,38.24
2022-07-29T14:18:30.731Z,38.47
2022-07-29T14:23:34.264Z,38.02
2022-07-29T14:28:41.708Z,38.44
2022-07-29T14:33:48.469Z,37.68
2022-07-29T14:38:52.846Z,37.26
2022-07-29T14:43:56.653Z,37.59
2022-07-29T14:49:01.727Z,38.70
2022-07-29T14:54:05.370Z,38.00
2022-07-29T14:59:08.787Z,37.25
2022-07-29T15:04:13.599Z,37.47
2022-07-29T15:09:17.080Z,37.56
2022-07-29T15:14:20.539Z,37.68
2022-07-29T15:19:25.404Z,37.75
2022-07-29T15:24:28.968Z,37.28
2022-07-29T15:29:32.476Z,36.96
2022-07-29T15:34:38.331Z,37.74
2022-07-29T15:39:41.764Z,37.66
2022-07-29T15:44:45.386Z,37.45
2022-07-29T15:49:50.593Z,37.39
2022-07-29T15:54:54.619Z,37.29
2022-07-29T15:59:58.206Z,36.89
2022-07-29T16:05:03.062Z,36.98
2022-07-29T16:10:07.862Z,36.89
2022-07-29T16:15:11.668Z,36.43
2022-07-29T16:20:16.584Z,36.16
2022-07-29T16:25:20.580Z,36.08
2022-07-29T16:30:24.091Z,36.64
2022-07-29T16:35:39.591Z,36.25
2022-07-29T16:40:43.507Z,36.29
2022-07-29T16:45:47.046Z,35.84
2022-07-29T16:50:52.352Z,35.07
2022-07-29T16:55:55.796Z,34.67
2022-07-29T17:00:59.361Z,34.23
2022-07-29T17:06:04.466Z,34.19
2022-07-29T17:11:07.893Z,33.50
2022-07-29T17:16:11.445Z,33.84
2022-07-29T17:21:17.349Z,33.37
2022-07-29T17:26:21.108Z,33.39
2022-07-29T17:31:24.644Z,33.49
2022-07-29T17:36:29.506Z,33.41
2022-07-29T17:41:32.992Z,33.18
2022-07-29T17:46:36.544Z,32.72
2022-07-29T17:51:41.443Z,33.13
2022-07-29T17:56:44.953Z,33.20
2022-07-29T18:01:48.427Z,33.24
2022-07-29T18:06:53.911Z,33.14
2022-07-29T18:11:57.404Z,32.80
2022-07-29T18:17:01.271Z,32.69
2022-07-29T18:22:07.385Z,32.57
2022-07-29T18:27:10.967Z,32.43
2022-07-29T18:32:14.503Z,32.33
2022-07-29T18:37:19.340Z,32.11
2022-07-29T18:42:42.731Z,32.11
2022-07-29T18:47:48.891Z,31.91
2022-07-29T18:52:54.933Z,31.95
2022-07-29T18:57:58.444Z,31.67
2022-07-29T19:03:03.112Z,31.67
2022-07-29T19:08:08.189Z,31.59
2022-07-29T19:13:13.374Z,31.26
2022-07-29T19:18:17.186Z,31.11
2022-07-29T19:23:21.951Z,31.05
2022-07-29T19:28:25.459Z,30.96
2022-07-29T19:33:28.997Z,30.53
2022-07-29T19:38:34.027Z,30.49
2022-07-29T19:43:51.239Z,30.33
2022-07-29T19:48:57.187Z,30.17
2022-07-29T19:54:02.110Z,28.93
2022-07-29T19:59:05.788Z,29.38
2022-07-29T20:04:10.851Z,29.82
2022-07-29T20:09:20.457Z,29.54
2022-07-29T20:14:24.519Z,28.79
2022-07-29T20:19:28.398Z,27.61
2022-07-29T20:24:33.197Z,26.64
2022-07-29T20:29:36.832Z,26.09
2022-07-29T20:34:41.150Z,28.18
2022-07-29T20:39:47.817Z,27.66
2022-07-29T20:44:53.503Z,26.73
2022-07-29T20:49:57.018Z,27.26
2022-07-29T20:55:02.374Z,27.32
2022-07-29T21:00:07.127Z,27.48
2022-07-29T21:05:11.102Z,27.44
2022-07-29T21:10:18.156Z,26.94
2022-07-29T21:15:21.929Z,27.05
2022-07-29T21:20:25.685Z,26.22
2022-07-29T21:25:30.598Z,26.81
2022-07-29T21:30:34.223Z,26.54
2022-07-29T21:36:06.144Z,25.40
2022-07-29T21:41:02.769Z,26.48
2022-07-29T21:46:06.522Z,25.67
2022-07-29T21:51:09.941Z,26.84
2022-07-29T21:56:15.261Z,26.85
2022-07-29T22:01:21.564Z,26.99
2022-07-29T22:06:25.038Z,26.59
2022-07-29T22:11:29.964Z,26.03
2022-07-29T22:16:33.482Z,25.31
2022-07-29T22:21:37.127Z,24.26
2022-07-29T22:26:42.132Z,24.50
2022-07-29T22:31:45.744Z,23.42
2022-07-29T22:36:49.373Z,24.48
2022-07-29T22:41:54.147Z,24.59
2022-07-29T22:46:58.022Z,24.60
2022-07-29T22:52:01.802Z,23.61
2022-07-29T22:57:07.309Z,23.59
2022-07-29T23:02:10.868Z,22.77
2022-07-29T23:07:14.347Z,24.00
2022-07-29T23:12:19.155Z,23.75
2022-07-29T23:17:22.942Z,23.38
2022-07-29T23:22:26.480Z,22.76
2022-07-29T23:27:32.335Z,24.03
2022-07-29T23:32:35.853Z,24.02
2022-07-29T23:37:39.690Z,23.46
2022-07-29T23:42:44.626Z,23.43
2022-07-29T23:47:48.185Z,23.62
2022-07-29T23:52:51.672Z,23.58
2022-07-29T23:57:56.494Z,23.15
